Time,TemperatureF,DewpointF,PressureIn,WindDirection,WindDirectionDegrees,WindSpeedMPH,WindSpeedGustMPH,Humidity,HourlyPrecipIn,Conditions,Clouds,dailyrainin,SoftwareType,DateUTC
2013-07-12 00:11:00,65.0,59.0,-100.00,East,85,0.0,1.0,83,-99.99,,,-99.99,,2013-07-12 05:11:00,
2013-07-12 00:22:00,65.0,59.0,-100.00,East,85,0.0,1.0,83,-99.99,,,-99.99,,2013-07-12 05:22:00,
2013-07-12 00:53:00,63.0,59.0,-100.00,East,80,0.0,0.0,84,-99.99,,,-99.99,,2013-07-12 05:53:00,
2013-07-12 01:11:00,63.0,58.0,-100.00,East,80,0.0,0.0,84,-99.99,,,-99.99,,2013-07-12 06:11:00,
2013-07-12 01:22:00,63.0,58.0,-100.00,East,80,0.0,0.0,84,-99.99,,,-99.99,,2013-07-12 06:22:00,
2013-07-12 01:52:00,62.0,58.0,-100.00,ENE,75,0.0,0.0,85,-99.99,,,-99.99,,2013-07-12 06:52:00,
2013-07-12 02:12:00,61.0,57.0,-100.00,ENE,65,0.0,0.0,86,-99.99,,,-99.99,,2013-07-12 07:12:00,
2013-07-12 02:22:00,61.0,57.0,-100.00,ENE,65,0.0,0.0,86,-99.99,,,-99.99,,2013-07-12 07:22:00,
2013-07-12 02:43:00,60.0,57.0,-100.00,ENE,65,0.0,0.0,87,-99.99,,,-99.99,,2013-07-12 07:43:00,
2013-07-12 02:52:00,60.0,57.0,-100.00,ENE,65,0.0,0.0,87,-99.99,,,-99.99,,2013-07-12 07:52:00,
2013-07-12 03:01:00,60.0,57.0,-100.00,ENE,65,0.0,0.0,87,-99.99,,,-99.99,,2013-07-12 08:01:00,
2013-07-12 03:21:00,60.0,57.0,-100.00,ENE,65,0.0,0.0,89,-99.99,,,-99.99,,2013-07-12 08:21:00,
2013-07-12 03:42:00,59.0,56.0,-100.00,NNE,20,0.0,0.0,89,-99.99,,,-99.99,,2013-07-12 08:42:00,
2013-07-12 03:53:00,59.0,56.0,-100.00,NNE,20,0.0,0.0,89,-99.99,,,-99.99,,2013-07-12 08:53:00,
2013-07-12 04:12:00,59.0,56.0,-100.00,NNE,20,0.0,0.0,89,-99.99,,,-99.99,,2013-07-12 09:12:00,
2013-07-12 04:22:00,59.0,56.0,-100.00,NNE,20,0.0,0.0,89,-99.99,,,-99.99,,2013-07-12 09:22:00,
2013-07-12 04:43:00,59.0,55.0,-100.00,NE,50,0.0,0.0,89,-99.99,,,-99.99,,2013-07-12 09:43:00,
2013-07-12 04:52:00,59.0,55.0,-100.00,NE,50,0.0,0.0,89,-99.99,,,-99.99,,2013-07-12 09:52:00,
2013-07-12 05:22:00,58.0,55.0,-100.00,East,85,0.0,0.0,90,-99.99,,,-99.99,,2013-07-12 10:22:00,
2013-07-12 05:42:00,58.0,55.0,-100.00,East,90,0.0,0.0,91,-99.99,,,-99.99,,2013-07-12 10:42:00,
2013-07-12 05:52:00,58.0,55.0,-100.00,East,90,0.0,0.0,91,-99.99,,,-99.99,,2013-07-12 10:52:00,
2013-07-12 06:12:00,58.0,55.0,-100.00,ESE,120,0.0,2.0,92,-99.99,,,-99.99,,2013-07-12 11:12:00,
2013-07-12 06:22:00,58.0,55.0,-100.00,ESE,120,0.0,2.0,92,-99.99,,,-99.99,,2013-07-12 11:22:00,
2013-07-12 06:43:00,58.0,55.0,-100.00,East,100,0.0,0.0,92,-99.99,,,-99.99,,2013-07-12 11:43:00,
2013-07-12 06:53:00,58.0,55.0,-100.00,East,100,0.0,0.0,92,-99.99,,,-99.99,,2013-07-12 11:53:00,
2013-07-12 07:11:00,59.0,56.0,-100.00,ESE,115,0.0,1.0,92,-99.99,,,-99.99,,2013-07-12 12:11:00,
2013-07-12 07:22:00,59.0,56.0,-100.00,ESE,115,0.0,1.0,92,-99.99,,,-99.99,,2013-07-12 12:22:00,
2013-07-12 07:53:00,60.0,58.0,-100.00,SW,230,0.0,1.0,92,-99.99,,,-99.99,,2013-07-12 12:53:00,
2013-07-12 08:22:00,63.0,61.0,-100.00,SSW,210,0.0,4.0,91,-99.99,,,-99.99,,2013-07-12 13:22:00,
2013-07-12 08:43:00,64.0,58.0,-100.00,SW,215,0.0,1.0,81,-99.99,,,-99.99,,2013-07-12 13:43:00,
2013-07-12 08:53:00,64.0,58.0,-100.00,SW,215,0.0,1.0,81,-99.99,,,-99.99,,2013-07-12 13:53:00,
2013-07-12 09:22:00,67.0,60.0,-100.00,ESE,110,0.0,1.0,77,-99.99,,,-99.99,,2013-07-12 14:22:00,
2013-07-12 09:44:00,69.0,53.0,-100.00,SSW,205,1.0,4.0,57,-99.99,,,-99.99,,2013-07-12 14:44:00,
2013-07-12 09:53:00,69.0,53.0,-100.00,SSW,205,1.0,4.0,57,-99.99,,,-99.99,,2013-07-12 14:53:00,
2013-07-12 10:53:00,73.0,47.0,-100.00,SSW,205,1.0,4.0,39,-99.99,,,-99.99,,2013-07-12 15:53:00,
2013-07-12 11:22:00,74.0,49.0,-100.00,SW,220,1.0,3.0,41,-99.99,,,-99.99,,2013-07-12 16:22:00,
2013-07-12 11:43:00,76.0,51.0,-100.00,East,85,0.0,3.0,41,-99.99,,,-99.99,,2013-07-12 16:43:00,
2013-07-12 11:58:00,76.0,51.0,-100.00,East,85,0.0,3.0,41,-99.99,,,-99.99,,2013-07-12 16:58:00,
2013-07-12 12:14:00,78.0,51.0,-100.00,North,0,1.0,2.0,39,-99.99,,,-99.99,,2013-07-12 17:14:00,
2013-07-12 12:24:00,78.0,51.0,-100.00,North,0,1.0,2.0,39,-99.99,,,-99.99,,2013-07-12 17:24:00,
2013-07-12 12:37:00,80.0,53.0,-100.00,East,85,0.0,1.0,39,-99.99,,,-99.99,,2013-07-12 17:37:00,
2013-07-12 12:45:00,80.0,50.0,-100.00,SE,125,0.0,1.0,36,-99.99,,,-99.99,,2013-07-12 17:45:00,
2013-07-12 12:56:00,80.0,50.0,-100.00,SE,125,0.0,1.0,36,-99.99,,,-99.99,,2013-07-12 17:56:00,
2013-07-12 13:27:00,82.0,52.0,-100.00,SSW,200,1.0,3.0,36,-99.99,,,-99.99,,2013-07-12 18:27:00,
2013-07-12 13:48:00,82.0,50.0,-100.00,ENE,75,0.0,2.0,33,-99.99,,,-99.99,,2013-07-12 18:48:00,
2013-07-12 13:58:00,82.0,50.0,-100.00,ENE,75,0.0,2.0,33,-99.99,,,-99.99,,2013-07-12 18:58:00,
2013-07-12 14:15:00,83.0,51.0,-100.00,East,90,0.0,4.0,33,-99.99,,,-99.99,,2013-07-12 19:15:00,
2013-07-12 14:24:00,83.0,51.0,-100.00,East,90,0.0,4.0,33,-99.99,,,-99.99,,2013-07-12 19:24:00,
2013-07-12 14:58:00,84.0,49.0,-100.00,SW,215,1.0,6.0,30,-99.99,,,-99.99,,2013-07-12 19:58:00,
2013-07-12 15:24:00,84.0,47.0,-100.00,ESE,105,1.0,4.0,28,-99.99,,,-99.99,,2013-07-12 20:24:00,
2013-07-12 15:55:00,85.0,46.0,-100.00,SW,215,1.0,4.0,26,-99.99,,,-99.99,,2013-07-12 20:55:00,
2013-07-12 16:25:00,88.0,50.0,-100.00,South,175,1.0,4.0,27,-99.99,,,-99.99,,2013-07-12 21:25:00,
2013-07-12 16:59:00,85.0,46.0,-100.00,SSW,210,1.0,2.0,26,-99.99,,,-99.99,,2013-07-12 21:59:00,
2013-07-12 17:24:00,87.0,50.0,-100.00,East,95,0.0,4.0,28,-99.99,,,-99.99,,2013-07-12 22:24:00,
2013-07-12 17:44:00,84.0,49.0,-100.00,East,100,0.0,2.0,29,-99.99,,,-99.99,,2013-07-12 22:44:00,
2013-07-12 17:56:00,84.0,49.0,-100.00,East,100,0.0,2.0,29,-99.99,,,-99.99,,2013-07-12 22:56:00,
2013-07-12 18:13:00,83.0,49.0,-100.00,ESE,115,0.0,1.0,30,-99.99,,,-99.99,,2013-07-12 23:13:00,
2013-07-12 18:35:00,83.0,49.0,-100.00,ESE,120,0.0,1.0,31,-99.99,,,-99.99,,2013-07-12 23:35:00,
2013-07-12 18:58:00,83.0,52.0,-100.00,East,95,0.0,4.0,34,-99.99,,,-99.99,,2013-07-12 23:58:00,
2013-07-12 19:06:00,83.0,52.0,-100.00,SE,130,0.0,1.0,34,-99.99,,,-99.99,,2013-07-13 00:06:00,
2013-07-12 19:17:00,82.0,52.0,-100.00,East,90,0.0,1.0,36,-99.99,,,-99.99,,2013-07-13 00:17:00,
2013-07-12 19:25:00,82.0,52.0,-100.00,East,90,0.0,1.0,36,-99.99,,,-99.99,,2013-07-13 00:25:00,
2013-07-12 19:33:00,82.0,52.0,-100.00,East,90,0.0,1.0,36,-99.99,,,-99.99,,2013-07-13 00:33:00,
2013-07-12 19:56:00,81.0,54.0,-100.00,East,100,0.0,0.0,39,-99.99,,,-99.99,,2013-07-13 00:56:00,
2013-07-12 20:13:00,77.0,55.0,-100.00,East,100,0.0,1.0,46,-99.99,,,-99.99,,2013-07-13 01:13:00,
2013-07-12 20:24:00,77.0,55.0,-100.00,East,100,0.0,1.0,46,-99.99,,,-99.99,,2013-07-13 01:24:00,
2013-07-12 20:56:00,74.0,57.0,-100.00,SSW,200,0.0,0.0,55,-99.99,,,-99.99,,2013-07-13 01:56:00,
2013-07-12 21:14:00,72.0,57.0,-100.00,SSW,200,0.0,0.0,58,-99.99,,,-99.99,,2013-07-13 02:14:00,
2013-07-12 21:24:00,72.0,57.0,-100.00,SSW,200,0.0,0.0,58,-99.99,,,-99.99,,2013-07-13 02:24:00,
2013-07-12 21:36:00,71.0,57.0,-100.00,SSW,200,0.0,0.0,60,-99.99,,,-99.99,,2013-07-13 02:36:00,
2013-07-12 21:55:00,70.0,55.0,-100.00,SSW,200,0.0,1.0,59,-99.99,,,-99.99,,2013-07-13 02:55:00,
2013-07-12 22:13:00,68.0,55.0,-100.00,ESE,110,0.0,0.0,62,-99.99,,,-99.99,,2013-07-13 03:13:00,
2013-07-12 22:27:00,68.0,55.0,-100.00,ESE,110,0.0,0.0,62,-99.99,,,-99.99,,2013-07-13 03:27:00,
2013-07-12 22:45:00,67.0,56.0,-100.00,East,80,0.0,0.0,67,-99.99,,,-99.99,,2013-07-13 03:45:00,
2013-07-12 22:57:00,67.0,56.0,-100.00,East,80,0.0,0.0,67,-99.99,,,-99.99,,2013-07-13 03:57:00,
2013-07-12 23:22:00,66.0,56.0,-100.00,East,80,0.0,0.0,70,-99.99,,,-99.99,,2013-07-13 04:22:00,
2013-07-12 23:43:00,65.0,56.0,-100.00,East,90,0.0,1.0,74,-99.99,,,-99.99,,2013-07-13 04:43:00,
2013-07-12 23:52:00,65.0,56.0,-100.00,East,90,0.0,1.0,74,-99.99,,,-99.99,,2013-07-13 04:52:00,